Time;durP1;ratioP1;P1;durP2;ratioP2;P2;SDS_P1;SDS_P2;PMS_P1;PMS_P2;Temp;Humidity;BMP_temperature;BMP_pressure;BME280_temperature;BME280_humidity;BME280_pressure;Samples;Min_cycle;Max_cycle;Signal;HPM_P1;HPM_P2
2024/04/08 00:01:59;;;;;;;11.65;10.55;;;;;;;;;;6282421;22;20053;-95
2024/04/08 00:04:25;;;;;;;12.35;11.13;;;;;;;;;;6282916;22;20010;-94
2024/04/08 00:06:51;;;;;;;11.88;10.70;;;;;;;;;;6282766;22;20428;-94
2024/04/08 00:09:17;;;;;;;13.45;12.13;;;;;;;;;;6282045;22;20102;-94
2024/04/08 00:11:58;;;;;;;12.40;11.13;;;;;;;;;;6282298;22;20017;-95
2024/04/08 00:17:28;;;;;;;8.80;7.97;;;;;;;;;;6309506;22;20050;-95
2024/04/08 00:19:56;;;;;;;9.88;8.85;;;;;;;;;;6283397;22;20006;-94
2024/04/08 00:22:22;;;;;;;12.45;10.13;;;;;;;;;;6277505;22;20066;-93
2024/04/08 00:24:51;;;;;;;15.35;12.05;;;;;;;;;;6277561;22;20050;-96
2024/04/08 00:27:17;;;;;;;12.40;11.15;;;;;;;;;;6277267;22;20031;-95
2024/04/08 00:29:44;;;;;;;11.50;10.30;;;;;;;;;;6277056;22;20004;-95
2024/04/08 00:32:10;;;;;;;13.23;11.35;;;;;;;;;;6277781;22;20050;-95
2024/04/08 00:34:36;;;;;;;14.32;12.70;;;;;;;;;;6282618;22;20003;-92
2024/04/08 00:37:03;;;;;;;15.45;13.70;;;;;;;;;;6292006;22;20011;-96
2024/04/08 00:39:29;;;;;;;15.13;12.90;;;;;;;;;;6278854;22;20035;-95
2024/04/08 00:41:55;;;;;;;9.77;8.38;;;;;;;;;;6276777;22;20471;-94
2024/04/08 00:44:21;;;;;;;15.80;14.40;;;;;;;;;;6276980;22;20138;-95
2024/04/08 00:46:48;;;;;;;14.57;13.18;;;;;;;;;;6276697;22;20070;-94
2024/04/08 00:49:15;;;;;;;14.95;12.90;;;;;;;;;;6277075;22;20004;-95
2024/04/08 00:51:45;;;;;;;18.02;16.23;;;;;;;;;;6276768;22;20004;-95
2024/04/08 00:54:12;;;;;;;17.40;13.85;;;;;;;;;;6277055;22;20011;-95
2024/04/08 00:56:39;;;;;;;15.55;13.43;;;;;;;;;;6277564;22;20356;-96
2024/04/08 00:59:08;;;;;;;12.57;10.88;;;;;;;;;;6277901;22;20086;-96
2024/04/08 01:01:34;;;;;;;15.40;12.23;;;;;;;;;;6278729;22;20003;-95
2024/04/08 01:04:00;;;;;;;15.98;13.95;;;;;;;;;;6277278;22;20007;-95
2024/04/08 01:06:27;;;;;;;18.23;13.98;;;;;;;;;;6276984;22;20007;-95
2024/04/08 01:08:53;;;;;;;15.77;14.35;;;;;;;;;;6293064;22;19992;-95
2024/04/08 01:11:19;;;;;;;16.65;12.38;;;;;;;;;;6304406;22;19988;-94
2024/04/08 01:13:45;;;;;;;16.52;13.15;;;;;;;;;;6301778;22;20023;-95
2024/04/08 01:16:11;;;;;;;19.30;17.27;;;;;;;;;;6290925;22;19996;-95
2024/04/08 01:18:38;;;;;;;19.38;17.42;;;;;;;;;;6276737;22;20004;-96
2024/04/08 01:21:04;;;;;;;13.90;11.93;;;;;;;;;;6281828;22;20015;-95
2024/04/08 01:23:37;;;;;;;23.60;21.63;;;;;;;;;;6281356;22;20037;-95
2024/04/08 01:26:03;;;;;;;28.67;26.23;;;;;;;;;;6282677;22;20429;-96
2024/04/08 01:28:29;;;;;;;20.85;18.75;;;;;;;;;;6283029;22;20007;-95
2024/04/08 01:30:59;;;;;;;16.60;14.95;;;;;;;;;;6282583;22;20002;-95
2024/04/08 01:33:29;;;;;;;14.85;13.32;;;;;;;;;;6282657;22;20011;-96
2024/04/08 01:35:59;;;;;;;20.70;18.73;;;;;;;;;;6277668;22;20328;-95
2024/04/08 01:38:28;;;;;;;20.85;18.17;;;;;;;;;;6281709;22;20018;-95
2024/04/08 01:40:55;;;;;;;16.80;15.30;;;;;;;;;;6281445;22;20310;-95
2024/04/08 01:43:21;;;;;;;17.80;16.15;;;;;;;;;;6281883;22;20423;-94
2024/04/08 01:45:48;;;;;;;19.98;18.00;;;;;;;;;;6281347;22;20003;-95
2024/04/08 01:48:14;;;;;;;21.25;18.35;;;;;;;;;;6282871;22;20007;-95
2024/04/08 01:50:41;;;;;;;16.10;14.45;;;;;;;;;;6309104;22;20005;-96
2024/04/08 01:53:07;;;;;;;14.48;12.98;;;;;;;;;;6281521;22;20003;-95
2024/04/08 01:55:33;;;;;;;18.73;16.77;;;;;;;;;;6281596;22;20006;-95
2024/04/08 01:57:59;;;;;;;20.88;18.73;;;;;;;;;;6281923;22;20023;-94
2024/04/08 02:00:25;;;;;;;15.25;12.93;;;;;;;;;;6283170;22;20007;-95
2024/04/08 02:02:52;;;;;;;20.85;19.05;;;;;;;;;;6284046;22;20035;-95
2024/04/08 02:05:19;;;;;;;22.88;20.77;;;;;;;;;;6259367;22;20003;-94
2024/04/08 02:07:45;;;;;;;22.27;20.05;;;;;;;;;;6306406;22;19995;-92
2024/04/08 02:10:13;;;;;;;22.50;20.40;;;;;;;;;;6291630;22;20412;-95
2024/04/08 02:12:39;;;;;;;22.60;20.30;;;;;;;;;;6288951;22;20006;-94
2024/04/08 02:15:05;;;;;;;22.65;20.65;;;;;;;;;;6289764;22;20428;-95
2024/04/08 02:17:31;;;;;;;21.88;19.60;;;;;;;;;;6284403;22;20016;-95
2024/04/08 02:19:58;;;;;;;24.50;22.42;;;;;;;;;;6283718;22;19999;-96
2024/04/08 02:22:24;;;;;;;20.98;19.27;;;;;;;;;;6283006;22;20015;-95
2024/04/08 02:24:50;;;;;;;25.85;23.50;;;;;;;;;;6283722;22;20000;-95
2024/04/08 02:27:16;;;;;;;19.10;17.10;;;;;;;;;;6283975;22;20051;-95
2024/04/08 02:29:43;;;;;;;22.38;20.30;;;;;;;;;;6283787;22;20007;-95
2024/04/08 02:32:09;;;;;;;22.75;20.45;;;;;;;;;;6283758;22;20008;-96
2024/04/08 02:34:35;;;;;;;23.90;21.45;;;;;;;;;;6283468;22;20004;-95
2024/04/08 02:37:02;;;;;;;23.48;21.48;;;;;;;;;;6283443;22;20011;-96
2024/04/08 02:39:28;;;;;;;20.23;18.52;;;;;;;;;;6284338;22;20078;-95
2024/04/08 02:41:54;;;;;;;22.05;20.00;;;;;;;;;;6284040;22;20000;-96
2024/04/08 02:44:21;;;;;;;20.42;18.60;;;;;;;;;;6283625;22;20014;-96
2024/04/08 02:46:47;;;;;;;25.05;22.75;;;;;;;;;;6283871;22;20003;-96
2024/04/08 02:49:13;;;;;;;26.45;24.00;;;;;;;;;;6284773;22;20555;-94
2024/04/08 02:51:39;;;;;;;24.05;21.75;;;;;;;;;;6284260;22;20007;-95
2024/04/08 02:54:06;;;;;;;23.35;21.35;;;;;;;;;;6283429;22;20007;-95
2024/04/08 02:56:35;;;;;;;26.48;24.38;;;;;;;;;;6284458;22;20369;-96
2024/04/08 02:59:02;;;;;;;20.50;18.50;;;;;;;;;;6285473;22;20003;-96
2024/04/08 03:04:22;;;;;;;31.88;28.95;;;;;;;;;;6313559;22;20014;-95
2024/04/08 03:06:48;;;;;;;28.98;26.45;;;;;;;;;;6283946;22;20082;-96
2024/04/08 03:09:14;;;;;;;23.25;21.17;;;;;;;;;;6283787;22;20084;-96
2024/04/08 03:11:40;;;;;;;29.75;26.92;;;;;;;;;;6283945;22;20093;-95
2024/04/08 03:14:06;;;;;;;28.85;26.42;;;;;;;;;;6283479;22;20010;-95
2024/04/08 03:16:32;;;;;;;29.67;26.88;;;;;;;;;;6283253;22;20033;-95
2024/04/08 03:18:58;;;;;;;25.80;23.52;;;;;;;;;;6283983;22;20007;-95
2024/04/08 03:21:25;;;;;;;27.33;24.75;;;;;;;;;;6283366;22;20018;-95
2024/04/08 03:23:51;;;;;;;25.02;22.75;;;;;;;;;;6283549;22;20014;-95
2024/04/08 03:26:17;;;;;;;23.88;21.60;;;;;;;;;;6283753;22;20000;-95
2024/04/08 03:28:44;;;;;;;28.95;26.65;;;;;;;;;;6311216;22;20082;-95
2024/04/08 03:31:12;;;;;;;26.00;23.48;;;;;;;;;;6295043;22;20335;-95
2024/04/08 03:33:38;;;;;;;29.58;27.10;;;;;;;;;;6287373;22;19999;-96
2024/04/08 03:36:16;;;;;;;26.00;23.50;;;;;;;;;;6283520;22;20049;-95
2024/04/08 03:38:43;;;;;;;20.63;18.33;;;;;;;;;;6299591;22;20098;-92
2024/04/08 03:41:12;;;;;;;23.35;16.90;;;;;;;;;;6290397;22;19995;-95
2024/04/08 03:43:38;;;;;;;20.88;18.67;;;;;;;;;;6283174;22;20011;-96
2024/04/08 03:46:05;;;;;;;17.90;16.10;;;;;;;;;;6310801;22;20000;-95
2024/04/08 03:48:31;;;;;;;21.42;17.65;;;;;;;;;;6283769;22;20344;-96
2024/04/08 03:51:06;;;;;;;24.13;16.25;;;;;;;;;;6283591;22;20090;-95
2024/04/08 03:53:32;;;;;;;21.45;19.13;;;;;;;;;;6283582;22;20332;-95
2024/04/08 03:56:03;;;;;;;16.38;14.48;;;;;;;;;;6285075;22;20007;-94
2024/04/08 03:58:29;;;;;;;25.20;18.02;;;;;;;;;;6286184;22;20015;-96
2024/04/08 04:00:56;;;;;;;19.63;16.38;;;;;;;;;;6285393;22;20543;-94
2024/04/08 04:03:22;;;;;;;15.00;12.48;;;;;;;;;;6292708;22;20060;-96
2024/04/08 04:05:48;;;;;;;20.52;18.45;;;;;;;;;;6309503;22;20014;-94
2024/04/08 04:08:14;;;;;;;18.95;17.13;;;;;;;;;;6303974;22;20001;-95
2024/04/08 04:10:41;;;;;;;22.10;20.00;;;;;;;;;;6301868;22;19999;-95
2024/04/08 04:13:07;;;;;;;24.15;22.02;;;;;;;;;;6286094;22;20308;-95
2024/04/08 04:15:33;;;;;;;23.45;21.15;;;;;;;;;;6282807;22;20004;-96
2024/04/08 04:18:00;;;;;;;22.95;20.65;;;;;;;;;;6282625;22;20041;-95
2024/04/08 04:20:27;;;;;;;22.27;20.00;;;;;;;;;;6282113;22;20006;-95
2024/04/08 04:22:53;;;;;;;15.07;13.48;;;;;;;;;;6282204;22;20015;-96
2024/04/08 04:25:19;;;;;;;15.18;13.57;;;;;;;;;;6282718;22;20007;-95
2024/04/08 04:27:45;;;;;;;15.43;13.82;;;;;;;;;;6282818;22;20007;-95
2024/04/08 04:30:12;;;;;;;17.85;13.88;;;;;;;;;;6282806;22;20003;-94
2024/04/08 04:32:40;;;;;;;18.23;15.30;;;;;;;;;;6282661;22;20035;-96
2024/04/08 04:35:06;;;;;;;21.10;16.02;;;;;;;;;;6282564;22;20063;-95
2024/04/08 04:37:33;;;;;;;19.80;17.85;;;;;;;;;;6282343;22;20011;-96
2024/04/08 04:39:59;;;;;;;22.50;18.38;;;;;;;;;;6282596;22;20000;-96
2024/04/08 04:42:25;;;;;;;18.45;16.50;;;;;;;;;;6282709;22;20007;-95
2024/04/08 04:44:51;;;;;;;21.80;18.83;;;;;;;;;;6282857;22;20032;-95
2024/04/08 04:52:46;;;;;;;31.30;28.45;;;;;;;;;;6339794;22;20093;-94
2024/04/08 04:55:15;;;;;;;26.85;24.85;;;;;;;;;;6319512;22;20005;-95
2024/04/08 04:57:41;;;;;;;43.70;40.47;;;;;;;;;;6312783;22;20018;-95
2024/04/08 05:00:09;;;;;;;32.42;29.88;;;;;;;;;;6313598;22;19999;-95
2024/04/08 05:02:35;;;;;;;29.38;26.63;;;;;;;;;;6314666;22;20009;-95
2024/04/08 05:05:01;;;;;;;30.25;28.05;;;;;;;;;;6318412;22;20375;-93
2024/04/08 05:07:46;;;;;;;33.88;31.10;;;;;;;;;;6320468;22;20089;-94
2024/04/08 05:32:14;;;;;;;40.78;38.08;;;;;;;;;;6313770;22;20034;-94
2024/04/08 05:53:09;;;;;;;50.08;45.85;;;;;;;;;;6305881;22;20003;-94
2024/04/08 06:17:16;;;;;;;42.50;39.93;;;;;;;;;;6269603;22;20022;-94
2024/04/08 06:23:16;;;;;;;;;;;;;;;;;;;;;
2024/04/08 06:40:47;;;;;;;41.88;39.22;;;;;;;;;;6284494;22;20031;-94
2024/04/08 07:41:02;;;;;;;25.52;23.83;;;;;;;;;;6303798;22;19937;-95
2024/04/08 07:46:55;;;;;;;24.70;23.02;;;;;;;;;;6309539;22;20015;-95
2024/04/08 07:49:21;;;;;;;21.88;20.35;;;;;;;;;;6276600;22;20446;-94
2024/04/08 07:52:05;;;;;;;19.08;17.88;;;;;;;;;;6312198;22;20370;-95
2024/04/08 07:54:31;;;;;;;25.05;23.38;;;;;;;;;;6284873;22;20383;-95
2024/04/08 07:56:57;;;;;;;23.98;22.50;;;;;;;;;;6284552;22;20436;-93
2024/04/08 12:30:57;;;;;;;27.00;24.95;;;;;;;;;;6304586;22;20094;-94
2024/04/08 13:28:43;;;;;;;23.77;22.33;;;;;;;;;;6304819;22;20019;-94
2024/04/08 15:34:06;;;;;;;34.42;32.22;;;;;;;;;;6309187;22;20078;-96
2024/04/08 17:50:54;;;;;;;36.45;33.72;;;;;;;;;;6204995;23;20084;-96
2024/04/08 18:17:34;;;;;;;;;;;;;;;;;;;;;
2024/04/08 19:05:10;;;;;;;47.10;44.10;;;;;;;;;;6113993;22;20463;-95
2024/04/08 19:07:36;;;;;;;43.90;41.13;;;;;;;;;;6105046;23;20013;-94
2024/04/08 19:10:06;;;;;;;29.30;27.23;;;;;;;;;;6101803;23;20026;-94
2024/04/08 19:12:32;;;;;;;60.55;56.80;;;;;;;;;;6097130;23;20065;-95
2024/04/08 19:14:59;;;;;;;40.97;38.30;;;;;;;;;;6101702;23;20010;-93
2024/04/08 19:17:27;;;;;;;42.80;39.78;;;;;;;;;;6100363;23;20049;-94
2024/04/08 19:19:54;;;;;;;33.72;31.25;;;;;;;;;;6104084;23;20519;-93
2024/04/08 19:22:20;;;;;;;19.95;18.25;;;;;;;;;;6100444;23;20006;-95
2024/04/08 19:24:47;;;;;;;11.65;10.65;;;;;;;;;;6102687;23;20428;-95
2024/04/08 19:27:53;;;;;;;;;;;;;;;;;;;;;
2024/04/08 19:30:30;;;;;;;9.15;8.32;;;;;;;;;;6149195;22;20001;-93
2024/04/08 19:32:58;;;;;;;23.42;21.73;;;;;;;;;;6122895;22;19994;-92
2024/04/08 19:35:25;;;;;;;26.45;24.42;;;;;;;;;;6108672;23;20473;-93
2024/04/08 19:37:52;;;;;;;17.58;16.05;;;;;;;;;;6140897;23;20040;-94
2024/04/08 19:40:18;;;;;;;17.55;16.15;;;;;;;;;;6119726;23;20018;-93
2024/04/08 19:42:44;;;;;;;12.43;11.27;;;;;;;;;;6120147;23;20017;-93
2024/04/08 19:45:10;;;;;;;27.13;25.10;;;;;;;;;;6099079;23;20014;-94
2024/04/08 19:47:42;;;;;;;29.48;26.95;;;;;;;;;;6099560;23;20006;-93
2024/04/08 19:50:11;;;;;;;13.52;12.32;;;;;;;;;;6102308;23;20017;-92
2024/04/08 19:52:38;;;;;;;11.32;10.23;;;;;;;;;;6104408;23;20002;-93
2024/04/08 19:55:04;;;;;;;14.10;12.70;;;;;;;;;;6104059;23;20052;-93
2024/04/08 19:57:30;;;;;;;13.10;12.00;;;;;;;;;;6097676;23;20010;-93
2024/04/08 19:59:57;;;;;;;24.48;22.63;;;;;;;;;;6098259;23;20014;-93
2024/04/08 20:02:23;;;;;;;19.15;17.50;;;;;;;;;;6097980;23;20036;-94
2024/04/08 20:04:49;;;;;;;13.07;11.10;;;;;;;;;;6097986;23;20010;-94
2024/04/08 20:07:15;;;;;;;26.85;24.70;;;;;;;;;;6097931;23;20018;-93
2024/04/08 20:09:41;;;;;;;19.38;17.67;;;;;;;;;;6098327;23;20041;-95
2024/04/08 20:12:11;;;;;;;61.67;58.05;;;;;;;;;;6098309;23;20013;-93
2024/04/08 20:14:37;;;;;;;15.15;13.90;;;;;;;;;;6098028;23;20032;-94
2024/04/08 20:17:03;;;;;;;32.25;30.00;;;;;;;;;;6098199;23;20362;-93
2024/04/08 20:19:30;;;;;;;18.83;17.50;;;;;;;;;;6097980;23;20064;-94
2024/04/08 20:21:56;;;;;;;31.73;29.73;;;;;;;;;;6098687;23;20017;-95
2024/04/08 20:24:22;;;;;;;16.92;15.40;;;;;;;;;;6098399;23;20006;-94
2024/04/08 20:26:48;;;;;;;11.35;10.38;;;;;;;;;;6099012;23;20327;-94
2024/04/08 20:29:15;;;;;;;21.15;19.67;;;;;;;;;;6097726;23;20036;-94
2024/04/08 20:31:44;;;;;;;31.48;29.20;;;;;;;;;;6097999;23;20439;-93
2024/04/08 20:34:10;;;;;;;20.15;18.48;;;;;;;;;;6097793;23;20079;-94
2024/04/08 20:36:37;;;;;;;16.00;14.40;;;;;;;;;;6097686;23;20052;-94
2024/04/08 20:39:04;;;;;;;14.68;13.48;;;;;;;;;;6098173;23;20010;-93
2024/04/08 20:41:31;;;;;;;11.70;8.60;;;;;;;;;;6097840;23;20404;-94
2024/04/08 20:43:57;;;;;;;34.85;32.53;;;;;;;;;;6097494;23;20002;-92
2024/04/08 20:46:25;;;;;;;14.13;11.48;;;;;;;;;;6097555;23;20006;-94
2024/04/08 20:48:51;;;;;;;19.58;18.02;;;;;;;;;;6097795;23;20014;-92
2024/04/08 20:51:18;;;;;;;21.67;20.02;;;;;;;;;;6097797;23;20003;-94
2024/04/08 20:53:46;;;;;;;16.73;15.38;;;;;;;;;;6097310;23;20017;-93
2024/04/08 20:56:12;;;;;;;19.23;17.52;;;;;;;;;;6097179;23;20006;-94
2024/04/08 20:58:38;;;;;;;23.45;21.58;;;;;;;;;;6097173;23;20511;-94
2024/04/08 21:01:08;;;;;;;17.85;16.25;;;;;;;;;;6073307;23;20010;-93
2024/04/08 21:03:34;;;;;;;23.50;21.63;;;;;;;;;;6097228;23;20006;-93
2024/04/08 21:06:01;;;;;;;44.80;41.55;;;;;;;;;;6097142;23;20444;-93
2024/04/08 21:08:28;;;;;;;24.35;21.75;;;;;;;;;;6097147;23;20018;-94
2024/04/08 21:10:57;;;;;;;30.98;27.85;;;;;;;;;;6097461;23;20026;-93
2024/04/08 21:13:23;;;;;;;27.35;24.63;;;;;;;;;;6097158;23;20093;-93
2024/04/08 21:15:59;;;;;;;21.60;18.75;;;;;;;;;;6097598;23;20443;-95
2024/04/08 21:18:26;;;;;;;21.17;19.38;;;;;;;;;;6100520;23;20016;-94
2024/04/08 21:21:02;;;;;;;22.10;20.02;;;;;;;;;;6098820;23;20014;-94
2024/04/08 21:23:28;;;;;;;25.83;23.83;;;;;;;;;;6101121;23;20064;-94
2024/04/08 21:26:24;;;;;;;16.13;14.63;;;;;;;;;;6104128;23;20006;-93
2024/04/08 21:28:50;;;;;;;11.35;10.38;;;;;;;;;;6104092;23;20055;-93
2024/04/08 21:33:52;;;;;;;11.70;10.60;;;;;;;;;;6098468;22;20075;-93
2024/04/08 21:36:19;;;;;;;15.45;14.10;;;;;;;;;;6099227;23;20014;-94
2024/04/08 21:38:50;;;;;;;34.00;31.75;;;;;;;;;;6106325;22;20024;-92
2024/04/08 21:41:17;;;;;;;17.42;15.95;;;;;;;;;;6125548;22;19994;-94
2024/04/08 21:43:43;;;;;;;15.02;10.55;;;;;;;;;;6116263;22;20010;-94
2024/04/08 21:46:10;;;;;;;17.85;16.17;;;;;;;;;;6112562;23;20006;-93
2024/04/08 21:48:36;;;;;;;21.40;19.95;;;;;;;;;;6098456;23;20031;-94
2024/04/08 21:51:06;;;;;;;21.48;19.45;;;;;;;;;;6098143;23;20006;-94
2024/04/08 21:53:33;;;;;;;15.82;14.68;;;;;;;;;;6099562;23;20003;-93
2024/04/08 21:56:00;;;;;;;36.10;33.65;;;;;;;;;;6103463;23;20006;-94
2024/04/08 21:58:27;;;;;;;12.77;11.60;;;;;;;;;;6099372;23;20085;-94
2024/04/08 22:00:54;;;;;;;23.05;21.15;;;;;;;;;;6098467;23;20147;-94
2024/04/08 22:03:21;;;;;;;12.02;10.90;;;;;;;;;;6098667;23;20006;-93
2024/04/08 22:05:48;;;;;;;11.32;10.02;;;;;;;;;;6098441;23;20455;-93
2024/04/08 22:08:15;;;;;;;39.38;36.80;;;;;;;;;;6098270;23;20006;-94
2024/04/08 22:10:42;;;;;;;14.38;12.88;;;;;;;;;;6100236;22;20092;-94
2024/04/08 22:13:11;;;;;;;12.05;9.80;;;;;;;;;;6098316;23;20498;-94
2024/04/08 22:15:38;;;;;;;11.93;9.43;;;;;;;;;;6098415;23;20013;-94
2024/04/08 22:18:05;;;;;;;24.80;22.73;;;;;;;;;;6098344;23;20037;-93
2024/04/08 22:20:31;;;;;;;15.98;13.00;;;;;;;;;;6099246;23;20014;-94
2024/04/08 22:22:58;;;;;;;22.77;21.10;;;;;;;;;;6098562;23;20100;-93
2024/04/08 22:25:24;;;;;;;10.90;10.00;;;;;;;;;;6098902;23;20090;-94
2024/04/08 22:27:50;;;;;;;12.95;11.85;;;;;;;;;;6098541;23;20370;-94
2024/04/08 22:30:16;;;;;;;13.02;11.85;;;;;;;;;;6098689;23;20002;-93
2024/04/08 22:32:43;;;;;;;24.67;23.00;;;;;;;;;;6098628;23;20006;-92
2024/04/08 22:35:09;;;;;;;11.18;9.70;;;;;;;;;;6098016;23;20020;-93
2024/04/08 22:37:35;;;;;;;19.02;17.60;;;;;;;;;;6099081;23;20010;-93
2024/04/08 22:40:05;;;;;;;28.45;26.00;;;;;;;;;;6098932;23;20045;-94
2024/04/08 22:42:32;;;;;;;15.55;14.02;;;;;;;;;;6099436;23;20002;-93
2024/04/08 22:44:58;;;;;;;12.45;9.98;;;;;;;;;;6105026;23;20443;-93
2024/04/08 22:47:24;;;;;;;17.20;15.77;;;;;;;;;;6100953;23;20002;-93
2024/04/08 22:49:50;;;;;;;11.13;7.97;;;;;;;;;;6098538;23;20010;-94
2024/04/08 22:52:16;;;;;;;25.52;23.70;;;;;;;;;;6097977;23;20006;-94
2024/04/08 22:54:43;;;;;;;13.82;12.73;;;;;;;;;;6098105;23;20006;-94
2024/04/08 22:57:10;;;;;;;16.25;14.15;;;;;;;;;;6098089;23;20499;-94
2024/04/08 22:59:36;;;;;;;10.85;9.85;;;;;;;;;;6098622;23;20482;-92
2024/04/08 23:02:02;;;;;;;14.07;12.90;;;;;;;;;;6098050;23;20002;-94
2024/04/08 23:04:29;;;;;;;24.42;22.63;;;;;;;;;;6097786;23;20148;-94
2024/04/08 23:06:55;;;;;;;16.90;15.43;;;;;;;;;;6098063;23;20421;-94
2024/04/08 23:09:21;;;;;;;17.48;16.13;;;;;;;;;;6097982;23;20013;-95
2024/04/08 23:11:47;;;;;;;37.28;34.88;;;;;;;;;;6097960;23;20002;-94
2024/04/08 23:14:13;;;;;;;31.67;29.40;;;;;;;;;;6097868;23;20059;-93
2024/04/08 23:16:40;;;;;;;35.88;33.70;;;;;;;;;;6098091;23;20006;-94
2024/04/08 23:19:06;;;;;;;46.25;43.63;;;;;;;;;;6098567;23;20001;-95
2024/04/08 23:21:32;;;;;;;25.75;23.75;;;;;;;;;;6098067;23;20420;-94
2024/04/08 23:23:58;;;;;;;49.85;46.85;;;;;;;;;;6098058;23;20010;-93
2024/04/08 23:26:24;;;;;;;33.50;31.50;;;;;;;;;;6097907;23;20006;-94
2024/04/08 23:28:50;;;;;;;49.40;46.50;;;;;;;;;;6097478;23;20093;-94
2024/04/08 23:31:17;;;;;;;38.58;36.28;;;;;;;;;;6098611;23;20495;-93
2024/04/08 23:33:43;;;;;;;45.33;42.50;;;;;;;;;;6097664;23;20036;-94
2024/04/08 23:36:09;;;;;;;54.65;50.78;;;;;;;;;;6098167;23;20010;-94
2024/04/08 23:38:36;;;;;;;39.10;36.60;;;;;;;;;;6097729;23;20005;-92
2024/04/08 23:41:02;;;;;;;56.80;53.45;;;;;;;;;;6097947;23;20014;-94
2024/04/08 23:43:28;;;;;;;16.67;14.35;;;;;;;;;;6097873;23;20005;-93
2024/04/08 23:45:59;;;;;;;41.60;38.75;;;;;;;;;;6098186;23;20041;-94
2024/04/08 23:48:25;;;;;;;26.05;23.98;;;;;;;;;;6097850;23;20060;-93
2024/04/08 23:50:51;;;;;;;36.10;33.88;;;;;;;;;;6097789;23;20016;-94
2024/04/08 23:53:17;;;;;;;31.95;29.63;;;;;;;;;;6098441;23;20428;-94
2024/04/08 23:55:44;;;;;;;21.88;20.00;;;;;;;;;;6098485;23;20089;-93
2024/04/08 23:58:10;;;;;;;24.80;23.00;;;;;;;;;;6097655;23;20013;-94
